createdAt,value
2023-05-25T00:01:49.573Z,15.30
2023-05-25T00:05:11.235Z,15.10
2023-05-25T00:08:32.829Z,15.10
2023-05-25T00:11:54.161Z,15.00
2023-05-25T00:15:17.028Z,14.90
2023-05-25T00:18:39.025Z,15.00
2023-05-25T00:22:02.374Z,15.00
2023-05-25T00:25:24.583Z,15.00
2023-05-25T00:28:45.903Z,14.80
2023-05-25T00:32:08.844Z,14.80
2023-05-25T00:35:30.534Z,14.70
2023-05-25T00:38:51.761Z,14.70
2023-05-25T00:42:13.381Z,14.60
2023-05-25T00:45:34.692Z,14.70
2023-05-25T00:48:58.282Z,14.70
2023-05-25T00:52:20.801Z,14.70
2023-05-25T00:55:46.678Z,14.70
2023-05-25T00:59:13.229Z,14.60
2023-05-25T01:02:35.175Z,14.40
2023-05-25T01:06:03.928Z,14.40
2023-05-25T01:12:12.831Z,14.40
2023-05-25T01:14:41.554Z,14.40
2023-05-25T01:17:11.261Z,14.50
2023-05-25T01:19:41.194Z,14.40
2023-05-25T01:22:17.184Z,14.50
2023-05-25T01:24:49.659Z,14.40
2023-05-25T01:27:26.003Z,14.30
2023-05-25T01:29:55.758Z,14.40
2023-05-25T01:32:25.096Z,14.40
2023-05-25T01:34:56.776Z,14.50
2023-05-25T01:37:28.656Z,14.50
2023-05-25T01:39:57.152Z,14.50
2023-05-25T01:42:25.544Z,14.30
2023-05-25T01:44:54.042Z,14.30
2023-05-25T01:47:29.811Z,14.30
2023-05-25T01:50:10.271Z,14.30
2023-05-25T01:52:46.632Z,14.30
2023-05-25T01:55:18.023Z,14.30
2023-05-25T01:57:52.848Z,14.20
2023-05-25T02:00:22.717Z,14.20
2023-05-25T02:02:53.132Z,14.20
2023-05-25T02:05:21.967Z,14.30
2023-05-25T02:07:51.810Z,14.40
2023-05-25T02:10:20.300Z,14.30
2023-05-25T02:12:48.805Z,14.30
2023-05-25T02:15:19.862Z,14.30
2023-05-25T02:17:48.505Z,14.30
2023-05-25T02:20:17.079Z,14.40
2023-05-25T02:22:45.585Z,14.40
2023-05-25T02:25:15.460Z,14.30
2023-05-25T02:27:44.358Z,14.40
2023-05-25T02:30:13.245Z,14.40
2023-05-25T02:32:42.064Z,14.40
2023-05-25T02:35:11.618Z,14.40
2023-05-25T02:37:40.778Z,14.40
2023-05-25T02:40:10.762Z,14.40
2023-05-25T02:42:40.715Z,14.30
2023-05-25T02:45:11.899Z,14.40
2023-05-25T02:47:40.437Z,14.40
2023-05-25T02:50:09.384Z,14.40
2023-05-25T02:52:37.868Z,14.40
2023-05-25T02:55:07.722Z,14.40
2023-05-25T02:57:37.227Z,14.30
2023-05-25T03:00:08.696Z,14.30
2023-05-25T03:02:37.138Z,14.20
2023-05-25T03:05:06.586Z,14.20
2023-05-25T03:07:35.197Z,14.30
2023-05-25T03:10:03.693Z,14.30
2023-05-25T03:12:32.263Z,14.20
2023-05-25T03:15:00.713Z,14.20
2023-05-25T03:17:30.619Z,14.10
2023-05-25T03:19:59.100Z,14.10
2023-05-25T03:22:27.875Z,14.10
2023-05-25T03:24:56.435Z,14.20
2023-05-25T03:27:24.824Z,14.20
2023-05-25T03:29:53.485Z,14.30
2023-05-25T03:32:23.450Z,14.30
2023-05-25T03:34:53.479Z,14.30
2023-05-25T03:37:22.008Z,14.30
2023-05-25T03:39:50.425Z,14.40
2023-05-25T03:42:18.831Z,14.50
2023-05-25T03:44:47.298Z,14.60
2023-05-25T03:47:15.835Z,14.60
2023-05-25T03:49:44.273Z,14.60
2023-05-25T03:52:14.087Z,14.70
2023-05-25T03:54:42.550Z,14.70
2023-05-25T03:57:11.144Z,14.80
2023-05-25T03:59:39.609Z,14.90
2023-05-25T04:02:08.250Z,15.10
2023-05-25T04:04:38.471Z,15.20
2023-05-25T04:07:07.242Z,15.30
2023-05-25T04:09:37.122Z,15.50
2023-05-25T04:12:06.073Z,15.60
2023-05-25T04:14:34.722Z,15.60
2023-05-25T04:17:03.217Z,15.60
2023-05-25T04:19:31.652Z,15.60
2023-05-25T04:22:00.290Z,15.60
2023-05-25T04:24:28.793Z,15.60
2023-05-25T04:26:58.849Z,15.60
2023-05-25T04:29:27.240Z,15.60
2023-05-25T04:31:55.883Z,15.70
2023-05-25T04:34:24.815Z,15.80
2023-05-25T04:36:53.828Z,15.80
2023-05-25T04:39:22.446Z,15.80
2023-05-25T04:41:51.871Z,15.80
2023-05-25T04:44:21.761Z,16.20
2023-05-25T04:46:50.303Z,16.60
2023-05-25T04:49:19.870Z,16.90
2023-05-25T04:51:48.563Z,17.30
2023-05-25T04:54:17.022Z,17.50
2023-05-25T04:56:45.617Z,17.90
2023-05-25T04:59:14.075Z,18.10
2023-05-25T05:01:44.734Z,18.50
2023-05-25T05:04:13.444Z,19.00
2023-05-25T05:06:42.045Z,19.50
2023-05-25T05:09:10.537Z,19.80
2023-05-25T05:11:38.969Z,20.40
2023-05-25T05:14:07.412Z,20.80
2023-05-25T05:16:37.754Z,21.10
2023-05-25T05:19:07.781Z,21.70
2023-05-25T05:21:36.387Z,22.00
2023-05-25T05:24:04.995Z,22.30
2023-05-25T05:26:41.300Z,22.70
2023-05-25T05:29:17.130Z,22.80
2023-05-25T05:31:45.739Z,22.90
2023-05-25T05:34:15.755Z,23.50
2023-05-25T05:36:56.649Z,23.60
2023-05-25T05:39:27.130Z,23.90
2023-05-25T05:41:55.658Z,24.20
2023-05-25T05:44:27.886Z,24.50
2023-05-25T05:47:01.139Z,24.70
2023-05-25T05:49:32.063Z,24.30
2023-05-25T05:52:00.680Z,24.60
2023-05-25T05:54:29.131Z,24.50
2023-05-25T05:56:57.803Z,24.80
2023-05-25T05:59:26.696Z,25.00
2023-05-25T06:01:55.288Z,25.20
2023-05-25T06:04:25.417Z,24.50
2023-05-25T06:06:55.280Z,24.90
2023-05-25T06:09:23.890Z,25.00
2023-05-25T06:11:52.401Z,24.90
2023-05-25T06:14:20.827Z,24.90
2023-05-25T06:16:49.268Z,25.00
2023-05-25T06:19:17.821Z,24.80
2023-05-25T06:21:46.358Z,24.80
2023-05-25T06:24:16.466Z,25.00
2023-05-25T06:26:45.026Z,25.20
2023-05-25T06:29:16.720Z,25.30
2023-05-25T06:31:46.115Z,25.40
2023-05-25T06:34:14.612Z,25.50
2023-05-25T06:36:43.068Z,25.70
2023-05-25T06:39:11.585Z,26.00
2023-05-25T06:41:41.674Z,26.20
2023-05-25T06:44:10.091Z,26.10
2023-05-25T06:46:39.362Z,25.80
2023-05-25T06:49:07.925Z,25.80
2023-05-25T06:51:37.369Z,26.00
2023-05-25T06:54:07.648Z,26.40
2023-05-25T06:56:36.524Z,26.40
2023-05-25T06:59:06.323Z,26.30
2023-05-25T07:01:34.890Z,26.20
2023-05-25T07:04:03.405Z,26.60
2023-05-25T07:06:32.050Z,26.50
2023-05-25T07:09:00.716Z,26.80
2023-05-25T07:11:29.126Z,27.00
2023-05-25T07:13:57.607Z,27.30
2023-05-25T07:16:27.527Z,27.10
2023-05-25T07:18:57.148Z,26.70
2023-05-25T07:21:27.045Z,26.50
2023-05-25T07:23:55.854Z,26.70
2023-05-25T07:26:25.816Z,26.80
2023-05-25T07:28:54.413Z,27.30
2023-05-25T07:31:23.141Z,27.40
2023-05-25T07:33:53.485Z,27.60
2023-05-25T07:36:21.963Z,27.80
2023-05-25T07:38:50.371Z,27.70
2023-05-25T07:41:18.937Z,27.50
2023-05-25T07:43:47.409Z,27.60
2023-05-25T07:46:17.361Z,27.40
2023-05-25T07:48:45.811Z,27.40
2023-05-25T07:51:15.597Z,28.20
2023-05-25T07:53:44.172Z,28.10
2023-05-25T07:56:12.616Z,28.10
2023-05-25T07:58:41.083Z,27.90
2023-05-25T08:01:09.489Z,27.60
2023-05-25T08:03:49.192Z,27.90
2023-05-25T08:06:20.236Z,28.20
2023-05-25T08:08:50.115Z,28.00
2023-05-25T08:11:18.752Z,28.30
2023-05-25T08:13:47.172Z,28.00
2023-05-25T08:16:16.976Z,28.20
2023-05-25T08:18:47.351Z,28.00
2023-05-25T08:21:15.994Z,28.40
2023-05-25T08:23:46.028Z,28.60
2023-05-25T08:26:34.144Z,28.80
2023-05-25T08:29:02.929Z,28.70
2023-05-25T08:31:31.592Z,28.80
2023-05-25T08:34:00.569Z,29.10
2023-05-25T08:36:29.074Z,29.30
2023-05-25T08:38:58.872Z,29.20
2023-05-25T08:41:27.381Z,28.80
2023-05-25T08:43:56.368Z,29.10
2023-05-25T08:46:31.475Z,29.40
2023-05-25T08:49:05.634Z,29.70
2023-05-25T08:51:38.278Z,29.50
2023-05-25T08:54:11.021Z,28.60
2023-05-25T08:56:46.056Z,28.90
2023-05-25T08:59:26.733Z,29.20
2023-05-25T09:02:03.810Z,29.10
2023-05-25T09:04:34.258Z,29.40
2023-05-25T09:07:22.141Z,29.50
2023-05-25T09:10:12.631Z,29.60
2023-05-25T09:13:09.464Z,29.70
2023-05-25T09:15:47.825Z,29.60
2023-05-25T09:18:16.582Z,29.70
2023-05-25T09:20:46.951Z,29.50
2023-05-25T09:23:16.721Z,29.20
2023-05-25T09:25:50.943Z,29.40
2023-05-25T09:30:53.107Z,29.60
2023-05-25T09:33:21.746Z,29.60
2023-05-25T09:35:50.221Z,29.20
2023-05-25T09:38:19.125Z,29.10
2023-05-25T09:40:49.344Z,28.90
2023-05-25T09:43:32.380Z,28.80
2023-05-25T09:46:06.833Z,29.00
2023-05-25T09:48:36.313Z,28.80
2023-05-25T09:51:04.901Z,28.40
2023-05-25T09:53:33.721Z,28.50
2023-05-25T09:56:04.421Z,29.00
2023-05-25T09:58:33.936Z,29.10
2023-05-25T10:01:02.541Z,29.40
2023-05-25T10:03:31.589Z,29.10
2023-05-25T10:06:00.155Z,28.60
2023-05-25T10:08:29.953Z,28.20
2023-05-25T10:10:58.652Z,28.40
2023-05-25T10:13:30.255Z,28.30
2023-05-25T10:16:00.500Z,28.50
2023-05-25T10:18:33.026Z,28.40
2023-05-25T10:21:05.357Z,28.30
2023-05-25T10:23:40.317Z,28.20
2023-05-25T10:26:09.753Z,28.40
2023-05-25T10:28:41.209Z,28.30
2023-05-25T10:31:10.983Z,28.00
2023-05-25T10:33:39.477Z,28.10
2023-05-25T10:36:11.183Z,27.60
2023-05-25T10:38:42.090Z,27.70
2023-05-25T10:41:12.322Z,27.60
2023-05-25T10:43:42.433Z,27.40
2023-05-25T10:46:12.261Z,27.30
2023-05-25T10:48:41.949Z,27.10
2023-05-25T10:51:11.957Z,27.10
2023-05-25T10:53:40.688Z,26.80
2023-05-25T10:56:10.789Z,26.80
2023-05-25T10:58:44.788Z,26.80
2023-05-25T11:01:14.801Z,27.00
2023-05-25T11:03:56.115Z,26.90
2023-05-25T11:06:45.203Z,26.90
2023-05-25T11:09:25.954Z,26.80
2023-05-25T11:12:05.212Z,26.90
2023-05-25T11:14:37.978Z,26.90
2023-05-25T11:17:10.873Z,26.80
2023-05-25T11:19:50.795Z,26.50
2023-05-25T11:22:22.160Z,26.30
2023-05-25T11:24:52.205Z,26.20
2023-05-25T11:27:24.995Z,26.20
2023-05-25T11:29:56.562Z,26.60
2023-05-25T11:32:26.721Z,26.30
2023-05-25T11:34:56.249Z,26.30
2023-05-25T11:37:29.053Z,26.30
2023-05-25T11:39:57.703Z,26.20
2023-05-25T11:42:27.866Z,26.10
2023-05-25T11:44:58.547Z,25.80
2023-05-25T11:47:29.540Z,25.80
2023-05-25T11:49:58.595Z,25.50
2023-05-25T11:52:28.890Z,25.20
2023-05-25T11:54:57.317Z,25.10
2023-05-25T11:57:26.557Z,25.20
2023-05-25T12:00:01.033Z,25.40
2023-05-25T12:02:29.605Z,25.30
2023-05-25T12:04:59.552Z,25.30
2023-05-25T12:07:29.589Z,25.00
2023-05-25T12:10:08.325Z,25.30
2023-05-25T12:12:42.291Z,25.40
2023-05-25T12:15:14.946Z,25.30
2023-05-25T12:17:45.160Z,25.40
2023-05-25T12:20:15.460Z,25.40
2023-05-25T12:22:44.941Z,25.30
2023-05-25T12:25:16.102Z,25.20
2023-05-25T12:27:45.012Z,25.10
2023-05-25T12:30:15.211Z,25.00
2023-05-25T12:32:55.665Z,25.00
2023-05-25T12:35:24.310Z,24.90
2023-05-25T12:38:10.352Z,25.00
2023-05-25T12:40:39.052Z,24.90
2023-05-25T12:43:07.607Z,24.80
2023-05-25T12:45:41.747Z,25.00
2023-05-25T12:48:10.893Z,25.10
2023-05-25T12:50:39.561Z,25.20
2023-05-25T12:53:08.008Z,25.20
2023-05-25T12:55:36.800Z,25.00
2023-05-25T12:58:06.361Z,25.00
2023-05-25T13:00:37.738Z,24.90
2023-05-25T13:03:08.519Z,24.80
2023-05-25T13:05:39.203Z,24.70
2023-05-25T13:08:08.250Z,24.80
2023-05-25T13:10:39.711Z,24.90
2023-05-25T13:13:08.144Z,24.80
2023-05-25T13:15:38.070Z,24.80
2023-05-25T13:18:07.020Z,24.80
2023-05-25T13:20:36.861Z,24.90
2023-05-25T13:23:06.090Z,24.60
2023-05-25T13:25:34.561Z,24.80
2023-05-25T13:28:02.992Z,24.70
2023-05-25T13:30:31.464Z,24.60
2023-05-25T13:33:01.332Z,24.60
2023-05-25T13:35:42.414Z,24.40
2023-05-25T13:38:11.296Z,24.60
2023-05-25T13:40:39.829Z,24.50
2023-05-25T13:43:08.717Z,24.50
2023-05-25T13:45:37.231Z,24.50
2023-05-25T13:48:07.280Z,24.40
2023-05-25T13:50:35.839Z,24.50
2023-05-25T13:53:04.370Z,24.40
2023-05-25T13:55:32.846Z,24.40
2023-05-25T13:58:01.280Z,24.50
2023-05-25T14:00:29.873Z,24.30
2023-05-25T14:02:58.397Z,24.20
2023-05-25T14:05:28.621Z,24.10
2023-05-25T14:07:57.166Z,24.20
2023-05-25T14:10:25.772Z,24.20
2023-05-25T14:12:54.270Z,24.10
2023-05-25T14:15:22.984Z,24.30
2023-05-25T14:17:51.569Z,24.30
2023-05-25T14:20:25.805Z,24.40
2023-05-25T14:22:56.013Z,24.40
2023-05-25T14:25:24.529Z,24.50
2023-05-25T14:27:52.963Z,24.40
2023-05-25T14:30:21.536Z,24.40
2023-05-25T14:32:50.099Z,24.50
2023-05-25T14:35:18.774Z,24.50
2023-05-25T14:37:47.281Z,24.30
2023-05-25T14:40:17.763Z,24.20
2023-05-25T14:42:46.311Z,24.30
2023-05-25T14:45:16.133Z,24.00
2023-05-25T14:47:44.812Z,24.10
2023-05-25T14:50:13.328Z,24.10
2023-05-25T14:52:42.087Z,24.10
2023-05-25T14:55:11.216Z,23.90
2023-05-25T14:57:41.602Z,23.80
2023-05-25T15:00:11.288Z,23.70
2023-05-25T15:02:39.978Z,23.60
2023-05-25T15:05:09.601Z,23.80
2023-05-25T15:07:37.990Z,23.80
2023-05-25T15:10:07.283Z,23.60
2023-05-25T15:12:35.789Z,23.50
2023-05-25T15:15:06.369Z,23.50
2023-05-25T15:17:34.878Z,23.40
2023-05-25T15:20:03.333Z,23.50
2023-05-25T15:22:32.049Z,23.40
2023-05-25T15:25:02.440Z,23.50
2023-05-25T15:27:32.308Z,23.40
2023-05-25T15:30:00.830Z,23.40
2023-05-25T15:32:30.786Z,23.20
2023-05-25T15:34:59.409Z,23.10
2023-05-25T15:37:29.392Z,23.10
2023-05-25T15:39:57.897Z,23.00
2023-05-25T15:42:26.959Z,23.00
2023-05-25T15:44:55.517Z,23.00
2023-05-25T15:47:24.017Z,23.00
2023-05-25T15:49:53.859Z,23.00
2023-05-25T15:52:22.363Z,22.90
2023-05-25T15:54:50.938Z,22.90
2023-05-25T15:57:19.468Z,22.90
2023-05-25T15:59:48.538Z,22.90
2023-05-25T16:02:17.012Z,22.90
2023-05-25T16:04:45.718Z,22.90
2023-05-25T16:07:15.601Z,22.90
2023-05-25T16:09:44.081Z,22.80
2023-05-25T16:12:12.516Z,22.90
2023-05-25T16:14:41.052Z,23.00
2023-05-25T16:17:11.888Z,22.80
2023-05-25T16:19:40.375Z,22.90
2023-05-25T16:22:08.858Z,22.90
2023-05-25T16:24:38.776Z,22.90
2023-05-25T16:27:07.686Z,23.00
2023-05-25T16:29:36.274Z,22.80
2023-05-25T16:32:08.324Z,22.80
2023-05-25T16:34:36.871Z,22.80
2023-05-25T16:37:05.606Z,22.80
2023-05-25T16:39:34.309Z,22.90
2023-05-25T16:42:04.178Z,22.80
2023-05-25T16:44:32.694Z,22.60
2023-05-25T16:47:01.102Z,22.70
2023-05-25T16:49:29.731Z,22.50
2023-05-25T16:51:58.275Z,22.50
2023-05-25T16:54:26.730Z,22.30
2023-05-25T16:56:55.260Z,22.40
2023-05-25T16:59:25.158Z,22.60
2023-05-25T17:01:53.687Z,22.40
2023-05-25T17:04:22.262Z,22.40
2023-05-25T17:06:50.764Z,22.40
2023-05-25T17:09:19.376Z,22.30
2023-05-25T17:11:47.969Z,22.40
2023-05-25T17:14:16.553Z,22.40
2023-05-25T17:16:46.550Z,22.40
2023-05-25T17:19:15.231Z,22.40
2023-05-25T17:21:44.094Z,22.50
2023-05-25T17:24:12.588Z,22.50
2023-05-25T17:26:41.031Z,22.20
2023-05-25T17:29:09.581Z,22.30
2023-05-25T17:31:38.126Z,22.30
2023-05-25T17:34:08.032Z,22.20
2023-05-25T17:36:37.302Z,22.10
2023-05-25T17:39:06.038Z,22.10
2023-05-25T17:41:34.881Z,22.10
2023-05-25T17:44:03.408Z,22.10
2023-05-25T17:46:32.069Z,22.00
2023-05-25T17:49:00.805Z,22.00
2023-05-25T17:51:34.408Z,21.90
2023-05-25T17:54:02.886Z,21.80
2023-05-25T17:56:32.088Z,21.80
2023-05-25T17:59:00.682Z,21.70
2023-05-25T18:01:29.326Z,21.70
2023-05-25T18:03:58.122Z,21.70
2023-05-25T18:06:28.530Z,21.60
2023-05-25T18:08:59.789Z,21.60
2023-05-25T18:11:30.215Z,21.70
2023-05-25T18:13:58.778Z,21.60
2023-05-25T18:16:27.305Z,21.50
2023-05-25T18:18:55.789Z,21.50
2023-05-25T18:21:24.261Z,21.30
2023-05-25T18:23:52.785Z,21.30
2023-05-25T18:26:22.719Z,21.10
2023-05-25T18:28:51.243Z,21.10
2023-05-25T18:31:19.944Z,21.20
2023-05-25T18:33:48.495Z,21.10
2023-05-25T18:36:17.068Z,21.10
2023-05-25T18:38:45.584Z,21.00
2023-05-25T18:41:14.163Z,20.90
2023-05-25T18:43:44.191Z,20.90
2023-05-25T18:46:12.734Z,20.90
2023-05-25T18:48:42.128Z,20.80
2023-05-25T18:51:10.677Z,20.80
2023-05-25T18:53:39.918Z,20.70
2023-05-25T18:56:09.100Z,20.90
2023-05-25T18:58:38.076Z,20.80
2023-05-25T19:01:08.411Z,20.70
2023-05-25T19:03:37.078Z,20.70
2023-05-25T19:06:06.337Z,20.70
2023-05-25T19:08:34.772Z,20.70
2023-05-25T19:11:03.268Z,20.80
2023-05-25T19:13:31.833Z,20.60
2023-05-25T19:16:01.166Z,20.50
2023-05-25T19:18:31.153Z,20.50
2023-05-25T19:21:01.055Z,20.60
2023-05-25T19:23:29.551Z,20.50
2023-05-25T19:25:58.140Z,20.50
2023-05-25T19:28:26.604Z,20.50
2023-05-25T19:30:55.040Z,20.40
2023-05-25T19:33:23.443Z,20.30
2023-05-25T19:35:53.312Z,20.20
2023-05-25T19:38:22.105Z,20.30
2023-05-25T19:40:51.842Z,20.20
2023-05-25T19:43:20.440Z,20.20
2023-05-25T19:45:48.973Z,20.30
2023-05-25T19:48:19.466Z,20.30
2023-05-25T19:50:47.928Z,20.20
2023-05-25T19:53:17.742Z,20.40
2023-05-25T19:55:46.470Z,20.30
2023-05-25T19:58:14.995Z,20.30
2023-05-25T20:00:43.526Z,20.30
2023-05-25T20:03:12.266Z,20.20
2023-05-25T20:05:41.106Z,20.20
2023-05-25T20:08:09.729Z,20.20
2023-05-25T20:10:39.720Z,20.10
2023-05-25T20:13:08.881Z,20.00
2023-05-25T20:15:37.416Z,20.00
2023-05-25T20:18:06.095Z,19.90
2023-05-25T20:20:34.724Z,19.90
2023-05-25T20:23:03.356Z,19.90
2023-05-25T20:25:31.868Z,19.90
2023-05-25T20:28:01.757Z,19.90
2023-05-25T20:30:30.297Z,19.80
2023-05-25T20:32:58.805Z,19.90
2023-05-25T20:35:27.306Z,19.90
2023-05-25T20:37:55.715Z,19.80
2023-05-25T20:40:25.837Z,19.70
2023-05-25T20:42:54.359Z,19.70
2023-05-25T20:45:25.326Z,19.60
2023-05-25T20:48:00.710Z,19.60
2023-05-25T20:50:29.310Z,19.50
2023-05-25T20:52:58.487Z,19.60
2023-05-25T20:55:27.836Z,19.60
2023-05-25T20:57:59.724Z,19.40
2023-05-25T21:00:29.757Z,19.40
2023-05-25T21:02:58.376Z,19.50
2023-05-25T21:05:26.940Z,19.40
2023-05-25T21:07:55.618Z,19.30
2023-05-25T21:10:24.108Z,19.30
2023-05-25T21:12:52.530Z,19.30
2023-05-25T21:15:21.082Z,19.20
2023-05-25T21:17:50.994Z,19.10
2023-05-25T21:20:20.166Z,19.10
2023-05-25T21:22:48.761Z,19.10
2023-05-25T21:25:17.262Z,19.00
2023-05-25T21:27:45.809Z,19.00
2023-05-25T21:30:14.724Z,19.00
2023-05-25T21:32:43.325Z,19.00
2023-05-25T21:35:13.345Z,19.00
2023-05-25T21:37:41.799Z,18.90
2023-05-25T21:40:11.006Z,18.90
2023-05-25T21:42:39.500Z,19.00
2023-05-25T21:45:08.848Z,19.10
2023-05-25T21:47:37.380Z,19.00
2023-05-25T21:50:06.685Z,18.90
2023-05-25T21:52:36.562Z,18.90
2023-05-25T21:55:05.306Z,19.00
2023-05-25T21:57:33.718Z,19.00
2023-05-25T22:00:02.223Z,19.10
2023-05-25T22:02:31.063Z,19.10
2023-05-25T22:04:59.653Z,19.10
2023-05-25T22:07:28.159Z,19.00
2023-05-25T22:09:58.022Z,19.00
2023-05-25T22:12:26.556Z,18.90
2023-05-25T22:14:55.071Z,18.90
2023-05-25T22:17:23.718Z,18.70
2023-05-25T22:20:03.218Z,18.70
2023-05-25T22:22:34.845Z,18.60
2023-05-25T22:25:04.983Z,18.50
2023-05-25T22:27:33.809Z,18.60
2023-05-25T22:30:02.261Z,18.60
2023-05-25T22:32:31.001Z,18.50
2023-05-25T22:34:59.675Z,18.40
2023-05-25T22:37:28.201Z,18.40
2023-05-25T22:39:57.453Z,18.40
2023-05-25T22:42:27.587Z,18.30
2023-05-25T22:44:56.215Z,18.10
2023-05-25T22:47:24.935Z,18.30
2023-05-25T22:49:53.590Z,18.20
2023-05-25T22:52:22.103Z,18.00
2023-05-25T22:54:50.864Z,18.00
2023-05-25T22:57:19.326Z,18.10
2023-05-25T22:59:49.285Z,18.10
2023-05-25T23:02:17.716Z,18.00
2023-05-25T23:04:46.266Z,17.90
2023-05-25T23:07:14.804Z,17.70
2023-05-25T23:09:43.364Z,17.70
2023-05-25T23:12:11.830Z,17.70
2023-05-25T23:14:40.605Z,17.60
2023-05-25T23:17:10.474Z,17.50
2023-05-25T23:19:40.376Z,17.40
2023-05-25T23:22:08.858Z,17.40
2023-05-25T23:24:37.617Z,17.40
2023-05-25T23:27:06.953Z,17.40
2023-05-25T23:29:35.423Z,17.30
2023-05-25T23:32:04.186Z,17.30
2023-05-25T23:34:34.036Z,17.20
2023-05-25T23:37:04.408Z,17.20
2023-05-25T23:39:34.137Z,17.20
2023-05-25T23:42:03.486Z,17.10
2023-05-25T23:44:32.010Z,17.10
2023-05-25T23:47:00.658Z,17.10
2023-05-25T23:49:29.404Z,17.20
2023-05-25T23:51:59.289Z,17.10
2023-05-25T23:54:27.769Z,17.00
2023-05-25T23:56:56.303Z,17.00
2023-05-25T23:59:24.730Z,16.90
